createdAt,value
2022-11-02T00:04:27.940Z,3.78
2022-11-02T00:09:58.891Z,3.03
2022-11-02T00:15:32.366Z,3.70
2022-11-02T00:21:04.858Z,3.13
2022-11-02T00:26:37.999Z,3.60
2022-11-02T00:32:08.956Z,3.50
2022-11-02T00:37:39.867Z,3.40
2022-11-02T00:43:11.015Z,3.20
2022-11-02T00:48:42.692Z,3.28
2022-11-02T00:54:14.043Z,3.20
2022-11-02T00:59:46.490Z,3.42
2022-11-02T01:10:52.152Z,3.17
2022-11-02T01:16:23.075Z,3.47
2022-11-02T01:21:53.986Z,3.42
2022-11-02T01:27:25.212Z,3.45
2022-11-02T01:32:56.213Z,3.40
2022-11-02T01:38:27.317Z,3.72
2022-11-02T01:44:02.518Z,3.67
2022-11-02T01:49:36.262Z,3.78
2022-11-02T01:55:26.464Z,3.72
2022-11-02T02:00:57.720Z,3.22
2022-11-02T02:06:30.100Z,3.53
2022-11-02T02:12:02.776Z,3.92
2022-11-02T02:17:39.751Z,3.63
2022-11-02T02:23:33.080Z,3.47
2022-11-02T02:29:09.088Z,3.92
2022-11-02T02:34:58.371Z,4.15
2022-11-02T02:40:48.888Z,3.83
2022-11-02T02:46:42.805Z,4.70
2022-11-02T02:52:16.079Z,4.20
2022-11-02T02:57:47.318Z,4.30
2022-11-02T03:03:21.644Z,4.80
2022-11-02T03:09:19.223Z,4.38
2022-11-02T03:15:14.286Z,4.10
2022-11-02T03:21:08.046Z,4.20
2022-11-02T03:26:55.741Z,4.93
2022-11-02T03:32:29.285Z,4.78
2022-11-02T03:43:35.743Z,4.30
2022-11-02T03:49:08.748Z,4.33
2022-11-02T03:54:46.750Z,4.28
2022-11-02T04:00:22.046Z,4.32
2022-11-02T04:06:00.904Z,4.47
2022-11-02T04:11:54.953Z,4.20
2022-11-02T04:17:46.009Z,4.82
2022-11-02T04:23:39.229Z,5.07
2022-11-02T04:29:10.991Z,4.43
2022-11-02T04:34:42.874Z,5.53
2022-11-02T04:40:14.245Z,4.82
2022-11-02T04:45:45.541Z,4.72
2022-11-02T04:51:17.776Z,4.88
2022-11-02T04:56:48.914Z,4.50
2022-11-02T05:02:21.092Z,5.15
2022-11-02T05:07:52.858Z,4.60
2022-11-02T05:13:24.820Z,4.68
2022-11-02T05:18:57.717Z,4.60
2022-11-02T05:24:29.952Z,5.37
2022-11-02T05:30:01.164Z,4.88
2022-11-02T05:35:32.585Z,5.00
2022-11-02T05:41:03.866Z,5.00
2022-11-02T05:46:39.015Z,4.50
2022-11-02T05:52:09.880Z,4.13
2022-11-02T05:57:40.797Z,4.60
2022-11-02T06:03:12.118Z,4.53
2022-11-02T06:08:43.135Z,4.63
2022-11-02T06:14:14.063Z,4.32
2022-11-02T06:19:45.047Z,4.63
2022-11-02T06:25:16.542Z,4.30
2022-11-02T06:30:48.120Z,4.55
2022-11-02T06:36:19.052Z,4.75
2022-11-02T06:41:49.980Z,4.15
2022-11-02T06:47:21.014Z,4.05
2022-11-02T06:52:52.409Z,3.92
2022-11-02T06:58:24.643Z,4.25
2022-11-02T07:03:55.527Z,3.90
2022-11-02T07:09:26.682Z,3.53
2022-11-02T07:14:57.859Z,3.70
2022-11-02T07:20:30.609Z,3.80
2022-11-02T07:26:02.294Z,4.18
2022-11-02T07:31:34.153Z,3.88
2022-11-02T07:37:04.897Z,4.07
2022-11-02T07:42:35.804Z,4.18
2022-11-02T07:48:09.374Z,3.90
2022-11-02T07:53:40.604Z,4.13
2022-11-02T07:59:13.020Z,4.20
2022-11-02T08:04:45.215Z,3.77
2022-11-02T08:10:17.714Z,3.80
2022-11-02T08:15:50.893Z,3.40
2022-11-02T08:21:41.476Z,3.50
2022-11-02T08:27:12.325Z,3.92
2022-11-02T08:32:43.704Z,3.58
2022-11-02T08:38:16.077Z,3.13
2022-11-02T08:43:47.264Z,3.15
2022-11-02T08:49:18.969Z,3.28
2022-11-02T08:54:50.277Z,2.92
2022-11-02T09:00:26.167Z,3.08
2022-11-02T09:05:59.828Z,2.42
2022-11-02T09:11:31.338Z,2.10
2022-11-02T09:17:02.670Z,2.35
2022-11-02T09:22:34.102Z,2.35
2022-11-02T09:28:05.552Z,2.00
2022-11-02T09:33:37.129Z,2.20
2022-11-02T09:39:08.708Z,2.00
2022-11-02T09:44:48.756Z,2.08
2022-11-02T09:50:23.956Z,2.03
2022-11-02T09:55:57.910Z,1.98
2022-11-02T10:07:09.078Z,1.88
2022-11-02T10:13:08.158Z,1.90
2022-11-02T10:18:40.910Z,1.73
2022-11-02T10:24:32.683Z,2.07
2022-11-02T10:30:18.497Z,1.90
2022-11-02T10:36:19.317Z,1.90
2022-11-02T10:42:08.799Z,1.90
2022-11-02T10:47:52.419Z,1.80
2022-11-02T10:59:20.552Z,1.60
2022-11-02T11:04:52.034Z,1.83
2022-11-02T11:10:25.079Z,1.65
2022-11-02T11:15:55.984Z,1.60
2022-11-02T11:21:41.161Z,1.77
2022-11-02T11:27:16.944Z,1.77
2022-11-02T11:32:48.543Z,1.60
2022-11-02T11:38:22.542Z,1.38
2022-11-02T11:43:54.020Z,1.48
2022-11-02T11:49:41.721Z,1.67
2022-11-02T11:55:27.610Z,1.30
2022-11-02T12:01:11.950Z,1.10
2022-11-02T12:06:51.902Z,1.55
2022-11-02T12:12:48.702Z,1.30
2022-11-02T12:18:31.907Z,1.65
2022-11-02T12:24:38.206Z,1.40
2022-11-02T12:30:15.754Z,1.70
2022-11-02T12:35:53.897Z,1.50
2022-11-02T12:41:36.895Z,1.55
2022-11-02T12:47:45.933Z,1.57
2022-11-02T12:53:35.615Z,1.30
2022-11-02T12:59:06.868Z,1.27
2022-11-02T13:04:45.479Z,1.58
2022-11-02T13:10:34.848Z,1.23
2022-11-02T13:16:08.704Z,1.30
2022-11-02T13:21:45.285Z,1.70
2022-11-02T13:27:38.499Z,1.30
2022-11-02T13:33:29.464Z,1.35
2022-11-02T13:39:48.702Z,1.30
2022-11-02T13:45:57.728Z,1.15
2022-11-02T13:51:37.598Z,1.20
2022-11-02T13:57:24.538Z,1.92
2022-11-02T14:02:57.767Z,1.42
2022-11-02T14:08:38.812Z,1.50
2022-11-02T14:14:10.450Z,1.60
2022-11-02T14:19:44.679Z,1.42
2022-11-02T14:25:17.420Z,1.40
2022-11-02T14:31:17.887Z,1.30
2022-11-02T14:36:58.661Z,1.52
2022-11-02T14:42:35.622Z,1.08
2022-11-02T14:48:07.314Z,1.70
2022-11-02T14:53:38.430Z,1.48
2022-11-02T14:59:17.032Z,1.30
2022-11-02T15:04:50.009Z,1.00
2022-11-02T15:10:21.172Z,1.40
2022-11-02T15:15:52.300Z,1.15
2022-11-02T15:21:24.207Z,1.40
2022-11-02T15:26:59.415Z,1.20
2022-11-02T15:32:33.356Z,1.30
2022-11-02T15:38:28.069Z,1.08
2022-11-02T15:44:11.365Z,1.55
2022-11-02T15:50:08.499Z,1.27
2022-11-02T15:56:20.053Z,1.42
2022-11-02T16:02:33.289Z,1.25
2022-11-02T16:08:10.921Z,1.20
2022-11-02T16:14:03.309Z,1.10
2022-11-02T16:19:33.028Z,1.17
2022-11-02T16:25:14.849Z,1.42
2022-11-02T16:31:18.411Z,1.23
2022-11-02T16:36:50.448Z,1.03
2022-11-02T16:42:24.628Z,1.33
2022-11-02T16:47:55.811Z,1.60
2022-11-02T16:53:31.505Z,1.15
2022-11-02T16:59:05.627Z,1.40
2022-11-02T17:04:40.192Z,1.40
2022-11-02T17:10:26.068Z,1.20
2022-11-02T17:16:07.146Z,1.70
2022-11-02T17:21:39.250Z,1.63
2022-11-02T17:27:39.515Z,1.95
2022-11-02T17:33:24.076Z,2.10
2022-11-02T17:38:55.635Z,2.20
2022-11-02T17:44:41.983Z,1.92
2022-11-02T17:50:13.674Z,2.20
2022-11-02T17:55:45.657Z,1.83
2022-11-02T18:01:17.850Z,1.83
2022-11-02T18:06:49.358Z,1.90
2022-11-02T18:12:20.518Z,2.42
2022-11-02T18:17:52.147Z,2.45
2022-11-02T18:23:23.681Z,2.20
2022-11-02T18:28:54.933Z,2.13
2022-11-02T18:34:26.164Z,1.75
2022-11-02T18:39:57.150Z,2.38
2022-11-02T18:51:04.896Z,2.25
2022-11-02T18:56:35.769Z,2.70
2022-11-02T19:02:07.887Z,2.20
2022-11-02T19:07:58.215Z,2.25
2022-11-02T19:13:29.688Z,2.10
2022-11-02T19:19:00.866Z,1.85
2022-11-02T19:24:31.978Z,2.20
2022-11-02T19:30:03.592Z,2.35
2022-11-02T19:35:35.837Z,2.50
2022-11-02T19:41:12.217Z,2.03
2022-11-02T19:52:20.076Z,2.53
2022-11-02T19:57:51.645Z,2.95
2022-11-02T20:03:23.241Z,2.20
2022-11-02T20:08:58.696Z,3.30
2022-11-02T20:14:29.992Z,2.80
2022-11-02T20:20:01.362Z,3.20
2022-11-02T20:25:32.947Z,2.13
2022-11-02T20:31:09.601Z,2.45
2022-11-02T20:36:41.500Z,2.47
2022-11-02T20:42:12.536Z,2.40
2022-11-02T20:47:43.723Z,2.50
2022-11-02T20:53:14.927Z,2.45
2022-11-02T20:58:50.083Z,2.35
2022-11-02T21:04:25.771Z,2.70
2022-11-02T21:09:58.005Z,2.60
2022-11-02T21:15:29.314Z,2.75
2022-11-02T21:21:19.676Z,3.28
2022-11-02T21:26:50.929Z,2.38
2022-11-02T21:32:22.264Z,2.67
2022-11-02T21:38:00.215Z,2.55
2022-11-02T21:43:37.051Z,2.80
2022-11-02T21:49:08.709Z,2.20
2022-11-02T21:54:39.963Z,2.35
2022-11-02T22:00:11.698Z,2.50
2022-11-02T22:05:55.773Z,2.13
2022-11-02T22:11:28.426Z,2.30
2022-11-02T22:16:59.746Z,2.55
2022-11-02T22:22:31.036Z,2.28
2022-11-02T22:28:02.062Z,2.50
2022-11-02T22:33:33.502Z,2.20
2022-11-02T22:39:06.809Z,2.38
2022-11-02T22:44:38.050Z,2.17
2022-11-02T22:50:09.740Z,2.47
2022-11-02T22:55:40.891Z,2.35
2022-11-02T23:01:14.893Z,2.08
2022-11-02T23:06:46.423Z,2.30
2022-11-02T23:12:17.671Z,2.53
2022-11-02T23:17:48.834Z,2.88
2022-11-02T23:23:55.462Z,2.78
2022-11-02T23:29:45.467Z,2.38
2022-11-02T23:35:35.802Z,2.38
2022-11-02T23:41:06.975Z,2.15
2022-11-02T23:46:42.437Z,2.30
2022-11-02T23:52:32.583Z,2.22
2022-11-02T23:58:03.871Z,2.67
